createdAt,value
2022-10-30T00:01:10.228Z,14.18
2022-10-30T00:03:37.246Z,14.15
2022-10-30T00:06:06.420Z,14.09
2022-10-30T00:08:33.761Z,14.07
2022-10-30T00:11:08.802Z,14.04
2022-10-30T00:13:36.393Z,14.01
2022-10-30T00:16:06.749Z,13.99
2022-10-30T00:18:36.207Z,13.99
2022-10-30T00:21:11.857Z,13.92
2022-10-30T00:23:39.053Z,13.90
2022-10-30T00:26:07.341Z,13.92
2022-10-30T00:28:34.702Z,13.91
2022-10-30T00:31:03.235Z,13.92
2022-10-30T00:33:30.659Z,13.87
2022-10-30T00:35:58.419Z,13.84
2022-10-30T00:38:25.477Z,13.87
2022-10-30T00:40:52.546Z,13.87
2022-10-30T00:43:45.983Z,13.84
2022-10-30T00:46:28.221Z,13.85
2022-10-30T00:49:04.027Z,13.85
2022-10-30T00:51:33.102Z,13.88
2022-10-30T00:54:03.130Z,13.88
2022-10-30T00:56:30.840Z,13.86
2022-10-30T00:59:03.254Z,13.84
2022-10-30T01:01:33.724Z,13.81
2022-10-30T01:04:02.892Z,13.83
2022-10-30T01:06:32.570Z,13.83
2022-10-30T01:09:00.485Z,13.84
2022-10-30T01:11:27.903Z,13.84
2022-10-30T01:13:58.987Z,13.86
2022-10-30T01:16:34.656Z,13.85
2022-10-30T01:19:25.578Z,13.82
2022-10-30T01:22:13.593Z,13.81
2022-10-30T01:25:15.185Z,13.80
2022-10-30T01:27:55.735Z,13.81
2022-10-30T01:30:44.316Z,13.80
2022-10-30T01:33:48.056Z,13.75
2022-10-30T01:36:29.212Z,13.73
2022-10-30T01:39:23.933Z,13.68
2022-10-30T01:41:52.209Z,13.67
2022-10-30T01:44:24.977Z,13.66
2022-10-30T01:46:57.719Z,13.65
2022-10-30T01:49:30.591Z,13.62
2022-10-30T01:52:12.870Z,13.58
2022-10-30T01:54:58.247Z,13.52
2022-10-30T01:57:53.809Z,13.48
2022-10-30T02:00:20.910Z,13.44
2022-10-30T02:02:50.050Z,13.44
2022-10-30T02:05:36.609Z,13.41
2022-10-30T02:08:03.764Z,13.40
2022-10-30T02:10:33.282Z,13.32
2022-10-30T02:13:01.210Z,13.31
2022-10-30T02:15:28.989Z,13.30
2022-10-30T02:17:57.004Z,13.23
2022-10-30T02:20:25.350Z,13.24
2022-10-30T02:22:56.251Z,13.13
2022-10-30T02:25:26.815Z,13.18
2022-10-30T02:27:53.810Z,13.19
2022-10-30T02:30:21.112Z,13.18
2022-10-30T02:32:51.198Z,13.10
2022-10-30T02:35:18.229Z,13.07
2022-10-30T02:37:48.505Z,13.01
2022-10-30T02:40:15.636Z,12.94
2022-10-30T02:42:42.655Z,12.90
2022-10-30T02:45:10.353Z,12.87
2022-10-30T02:47:37.381Z,12.85
2022-10-30T02:50:04.664Z,12.86
2022-10-30T02:52:31.994Z,12.84
2022-10-30T02:54:59.011Z,12.81
2022-10-30T02:57:26.052Z,12.79
2022-10-30T02:59:53.157Z,12.77
2022-10-30T03:02:20.191Z,12.78
2022-10-30T03:04:47.274Z,12.76
2022-10-30T03:07:14.401Z,12.74
2022-10-30T03:09:41.526Z,12.69
2022-10-30T03:12:08.504Z,12.65
2022-10-30T03:14:35.497Z,12.58
2022-10-30T03:17:02.546Z,12.59
2022-10-30T03:19:29.547Z,12.53
2022-10-30T03:21:56.601Z,12.50
2022-10-30T03:24:23.586Z,12.49
2022-10-30T03:26:50.584Z,12.48
2022-10-30T03:29:17.700Z,12.45
2022-10-30T03:31:44.743Z,12.44
2022-10-30T03:34:12.202Z,12.39
2022-10-30T03:36:39.202Z,12.34
2022-10-30T03:39:06.348Z,12.34
2022-10-30T03:41:33.352Z,12.33
2022-10-30T03:44:00.431Z,12.30
2022-10-30T03:46:27.474Z,12.31
2022-10-30T03:48:54.505Z,12.31
2022-10-30T03:51:21.485Z,12.28
2022-10-30T03:53:48.477Z,12.30
2022-10-30T03:56:15.535Z,12.33
2022-10-30T03:58:42.548Z,12.32
2022-10-30T04:01:10.517Z,12.31
2022-10-30T04:03:37.583Z,12.30
2022-10-30T04:06:05.400Z,12.28
2022-10-30T04:08:32.401Z,12.24
2022-10-30T04:10:59.588Z,12.25
2022-10-30T04:13:26.634Z,12.27
2022-10-30T04:15:56.077Z,12.29
2022-10-30T04:18:25.684Z,12.29
2022-10-30T04:20:53.103Z,12.28
2022-10-30T04:23:21.909Z,12.20
2022-10-30T04:25:49.284Z,12.24
2022-10-30T04:28:16.533Z,12.24
2022-10-30T04:30:43.949Z,12.25
2022-10-30T04:33:12.485Z,12.25
2022-10-30T04:35:40.431Z,12.25
2022-10-30T04:38:18.895Z,12.21
2022-10-30T04:40:46.104Z,12.14
2022-10-30T04:43:14.101Z,12.16
2022-10-30T04:45:41.599Z,12.20
2022-10-30T04:48:13.155Z,12.22
2022-10-30T04:50:40.248Z,12.23
2022-10-30T04:53:14.014Z,12.24
2022-10-30T04:55:40.868Z,12.26
2022-10-30T04:58:09.330Z,12.27
2022-10-30T05:00:36.824Z,12.23
2022-10-30T05:03:04.086Z,12.20
2022-10-30T05:05:32.358Z,12.14
2022-10-30T05:07:59.860Z,12.14
2022-10-30T05:10:27.578Z,12.08
2022-10-30T05:12:54.643Z,12.01
2022-10-30T05:15:21.797Z,11.98
2022-10-30T05:17:53.581Z,11.93
2022-10-30T05:20:21.468Z,11.85
2022-10-30T05:22:55.817Z,11.86
2022-10-30T05:25:23.883Z,11.82
2022-10-30T05:27:50.950Z,11.82
2022-10-30T05:30:17.972Z,11.82
2022-10-30T05:32:45.104Z,11.77
2022-10-30T05:35:12.206Z,11.76
2022-10-30T05:37:39.620Z,11.69
2022-10-30T05:40:07.079Z,11.62
2022-10-30T05:42:34.112Z,11.64
2022-10-30T05:45:02.206Z,11.61
2022-10-30T05:47:30.097Z,11.59
2022-10-30T05:49:57.191Z,11.57
2022-10-30T05:52:24.203Z,11.56
2022-10-30T05:54:51.189Z,11.56
2022-10-30T05:57:18.186Z,11.55
2022-10-30T05:59:45.222Z,11.57
2022-10-30T06:02:12.337Z,11.58
2022-10-30T06:04:39.755Z,11.59
2022-10-30T06:07:06.807Z,11.60
2022-10-30T06:09:33.819Z,11.61
2022-10-30T06:12:01.024Z,11.61
2022-10-30T06:14:28.071Z,11.58
2022-10-30T06:16:55.078Z,11.59
2022-10-30T06:19:22.108Z,11.60
2022-10-30T06:21:49.264Z,11.62
2022-10-30T06:24:16.265Z,11.57
2022-10-30T06:26:43.266Z,11.59
2022-10-30T06:29:10.320Z,11.59
2022-10-30T06:31:37.359Z,11.56
2022-10-30T06:34:05.367Z,11.51
2022-10-30T06:36:32.492Z,11.49
2022-10-30T06:38:59.830Z,11.40
2022-10-30T06:41:30.286Z,11.48
2022-10-30T06:43:57.718Z,11.45
2022-10-30T06:46:27.477Z,11.43
2022-10-30T06:48:57.830Z,11.43
2022-10-30T06:51:25.065Z,11.45
2022-10-30T06:53:52.073Z,11.46
2022-10-30T06:56:19.078Z,11.47
2022-10-30T06:58:46.100Z,11.43
2022-10-30T07:01:13.284Z,11.37
2022-10-30T07:03:40.505Z,11.33
2022-10-30T07:06:07.763Z,11.30
2022-10-30T07:08:34.831Z,11.33
2022-10-30T07:11:01.845Z,11.34
2022-10-30T07:13:28.889Z,11.35
2022-10-30T07:15:55.948Z,11.35
2022-10-30T07:18:23.080Z,11.39
2022-10-30T07:20:56.095Z,11.43
2022-10-30T07:23:23.826Z,11.37
2022-10-30T07:25:50.870Z,11.49
2022-10-30T07:28:18.008Z,11.54
2022-10-30T07:30:45.071Z,11.57
2022-10-30T07:33:12.095Z,11.61
2022-10-30T07:35:39.519Z,11.64
2022-10-30T07:38:10.635Z,11.66
2022-10-30T07:40:37.776Z,11.69
2022-10-30T07:43:05.446Z,11.81
2022-10-30T07:45:32.878Z,11.91
2022-10-30T07:48:01.011Z,11.99
2022-10-30T07:50:28.535Z,12.09
2022-10-30T07:52:55.659Z,12.18
2022-10-30T07:55:23.036Z,12.29
2022-10-30T07:57:50.436Z,12.36
2022-10-30T08:00:18.131Z,12.44
2022-10-30T08:02:51.127Z,12.51
2022-10-30T08:05:18.430Z,12.56
2022-10-30T08:07:46.661Z,12.70
2022-10-30T08:10:13.924Z,12.78
2022-10-30T08:12:43.870Z,12.89
2022-10-30T08:15:11.746Z,12.97
2022-10-30T08:17:43.600Z,13.04
2022-10-30T08:20:12.034Z,13.16
2022-10-30T08:22:55.750Z,13.26
2022-10-30T08:25:26.040Z,13.32
2022-10-30T08:27:55.767Z,13.43
2022-10-30T08:30:24.705Z,13.45
2022-10-30T08:32:51.738Z,13.60
2022-10-30T08:35:20.233Z,13.65
2022-10-30T08:37:47.772Z,13.73
2022-10-30T08:40:14.832Z,13.83
2022-10-30T08:42:41.896Z,13.92
2022-10-30T08:45:09.254Z,13.99
2022-10-30T08:47:36.311Z,14.06
2022-10-30T08:50:03.450Z,14.12
2022-10-30T08:52:30.946Z,14.18
2022-10-30T08:54:58.001Z,14.23
2022-10-30T08:57:25.802Z,14.30
2022-10-30T08:59:52.810Z,14.34
2022-10-30T09:02:20.125Z,14.39
2022-10-30T09:04:47.263Z,14.39
2022-10-30T09:07:14.317Z,14.50
2022-10-30T09:09:41.311Z,14.56
2022-10-30T09:12:08.315Z,14.60
2022-10-30T09:14:35.398Z,14.66
2022-10-30T09:17:02.491Z,14.71
2022-10-30T09:19:29.952Z,14.80
2022-10-30T09:21:56.957Z,14.82
2022-10-30T09:24:23.940Z,14.85
2022-10-30T09:26:51.593Z,14.92
2022-10-30T09:29:18.598Z,15.00
2022-10-30T09:31:45.620Z,15.10
2022-10-30T09:34:12.613Z,15.19
2022-10-30T09:36:39.986Z,15.26
2022-10-30T09:39:07.017Z,15.34
2022-10-30T09:42:07.236Z,15.42
2022-10-30T09:45:08.072Z,15.53
2022-10-30T09:47:56.929Z,15.61
2022-10-30T09:50:57.746Z,15.69
2022-10-30T09:53:50.503Z,15.79
2022-10-30T09:56:40.005Z,15.88
2022-10-30T09:59:28.835Z,15.90
2022-10-30T10:02:13.016Z,15.92
2022-10-30T10:04:48.204Z,15.92
2022-10-30T10:07:30.003Z,15.92
2022-10-30T10:10:03.313Z,15.94
2022-10-30T10:13:01.439Z,15.92
2022-10-30T10:15:39.745Z,15.92
2022-10-30T10:18:16.335Z,15.94
2022-10-30T10:20:48.259Z,16.01
2022-10-30T10:23:19.511Z,16.10
2022-10-30T10:25:54.483Z,16.20
2022-10-30T10:28:41.667Z,16.28
2022-10-30T10:31:37.381Z,16.34
2022-10-30T10:34:29.951Z,16.40
2022-10-30T10:37:08.941Z,16.46
2022-10-30T10:40:00.065Z,16.49
2022-10-30T10:42:42.059Z,16.55
2022-10-30T10:45:23.319Z,16.64
2022-10-30T10:48:02.811Z,16.66
2022-10-30T10:50:38.918Z,16.72
2022-10-30T10:53:21.067Z,16.77
2022-10-30T10:55:52.809Z,16.81
2022-10-30T10:58:57.650Z,16.86
2022-10-30T11:01:36.873Z,16.93
2022-10-30T11:04:13.558Z,16.99
2022-10-30T11:06:43.690Z,17.03
2022-10-30T11:09:24.630Z,17.13
2022-10-30T11:11:53.591Z,17.16
2022-10-30T11:14:25.455Z,17.22
2022-10-30T11:17:10.895Z,17.29
2022-10-30T11:19:37.878Z,17.42
2022-10-30T11:22:28.662Z,17.49
2022-10-30T11:24:55.948Z,17.55
2022-10-30T11:27:22.876Z,17.60
2022-10-30T11:29:57.412Z,17.61
2022-10-30T11:32:28.495Z,17.67
2022-10-30T11:35:07.611Z,17.69
2022-10-30T11:37:36.985Z,17.70
2022-10-30T11:40:09.967Z,17.76
2022-10-30T11:42:40.510Z,17.79
2022-10-30T11:45:16.596Z,17.84
2022-10-30T11:47:43.854Z,17.87
2022-10-30T11:50:22.912Z,17.89
2022-10-30T11:52:57.533Z,17.89
2022-10-30T11:55:37.809Z,17.88
2022-10-30T11:58:08.458Z,17.90
2022-10-30T12:00:37.842Z,17.83
2022-10-30T12:03:04.857Z,17.95
2022-10-30T12:05:43.596Z,18.01
2022-10-30T12:08:15.245Z,18.03
2022-10-30T12:10:51.140Z,18.04
2022-10-30T12:13:20.355Z,18.06
2022-10-30T12:16:04.566Z,18.07
2022-10-30T12:18:32.846Z,18.07
2022-10-30T12:21:01.469Z,18.11
2022-10-30T12:23:29.401Z,18.14
2022-10-30T12:26:01.071Z,18.15
2022-10-30T12:28:34.573Z,18.14
2022-10-30T12:31:10.470Z,18.19
2022-10-30T12:33:45.337Z,18.21
2022-10-30T12:36:20.079Z,18.21
2022-10-30T12:38:49.409Z,18.23
2022-10-30T12:41:29.542Z,18.23
2022-10-30T12:44:21.378Z,18.27
2022-10-30T12:47:21.328Z,18.27
2022-10-30T12:49:52.829Z,18.31
2022-10-30T12:52:33.140Z,18.30
2022-10-30T12:55:34.183Z,18.32
2022-10-30T12:58:05.359Z,18.29
2022-10-30T13:00:42.886Z,18.31
2022-10-30T13:03:12.587Z,18.34
2022-10-30T13:05:45.761Z,18.32
2022-10-30T13:08:21.675Z,18.35
2022-10-30T13:11:16.999Z,18.37
2022-10-30T13:13:49.907Z,18.35
2022-10-30T13:16:22.606Z,18.37
2022-10-30T13:18:51.953Z,18.41
2022-10-30T13:21:25.798Z,18.42
2022-10-30T13:24:06.560Z,18.41
2022-10-30T13:26:47.373Z,18.40
2022-10-30T13:29:29.135Z,18.42
2022-10-30T13:32:23.256Z,18.37
2022-10-30T13:35:04.990Z,18.37
2022-10-30T13:37:47.102Z,18.39
2022-10-30T13:40:40.305Z,18.37
2022-10-30T13:43:30.136Z,18.35
2022-10-30T13:46:26.971Z,18.34
2022-10-30T13:49:29.182Z,18.33
2022-10-30T13:52:16.470Z,18.32
2022-10-30T13:54:55.323Z,18.32
2022-10-30T13:57:46.487Z,18.30
2022-10-30T14:00:14.306Z,18.31
2022-10-30T14:02:41.424Z,18.29
2022-10-30T14:05:52.941Z,18.24
2022-10-30T14:11:06.025Z,18.14
2022-10-30T14:13:35.820Z,18.10
2022-10-30T14:16:07.204Z,18.08
2022-10-30T14:18:45.808Z,18.08
2022-10-30T14:21:58.287Z,18.09
2022-10-30T14:24:31.848Z,18.08
2022-10-30T14:27:04.600Z,18.06
2022-10-30T14:29:34.743Z,18.04
2022-10-30T14:32:13.838Z,18.07
2022-10-30T14:34:47.649Z,18.09
2022-10-30T14:37:14.637Z,18.24
2022-10-30T14:39:46.062Z,18.34
2022-10-30T14:42:47.586Z,18.42
2022-10-30T14:45:19.707Z,18.50
2022-10-30T14:48:01.950Z,18.52
2022-10-30T14:51:12.945Z,18.57
2022-10-30T14:54:00.503Z,18.54
2022-10-30T14:56:41.061Z,18.48
2022-10-30T14:59:13.833Z,18.40
2022-10-30T15:01:52.668Z,18.31
2022-10-30T15:04:43.120Z,18.18
2022-10-30T15:07:28.847Z,18.12
2022-10-30T15:10:16.943Z,18.02
2022-10-30T15:12:51.405Z,17.86
2022-10-30T15:15:19.533Z,17.79
2022-10-30T15:17:52.950Z,17.70
2022-10-30T15:20:25.736Z,17.62
2022-10-30T15:22:55.999Z,17.53
2022-10-30T15:25:33.455Z,17.49
2022-10-30T15:28:02.671Z,17.43
2022-10-30T15:30:30.824Z,17.35
2022-10-30T15:32:58.380Z,17.29
2022-10-30T15:35:27.630Z,17.27
2022-10-30T15:38:09.705Z,17.22
2022-10-30T15:40:40.654Z,17.16
2022-10-30T15:43:11.785Z,17.09
2022-10-30T15:45:44.287Z,17.03
2022-10-30T15:48:36.351Z,17.03
2022-10-30T15:51:06.675Z,16.93
2022-10-30T15:53:38.788Z,16.97
2022-10-30T15:56:11.826Z,16.96
2022-10-30T15:58:43.011Z,16.92
2022-10-30T16:01:24.780Z,16.88
2022-10-30T16:03:53.913Z,16.87
2022-10-30T16:06:25.223Z,16.83
2022-10-30T16:08:52.578Z,16.80
2022-10-30T16:11:22.599Z,16.78
2022-10-30T16:13:50.591Z,16.75
2022-10-30T16:16:29.110Z,16.72
2022-10-30T16:19:01.984Z,16.70
2022-10-30T16:21:31.371Z,16.67
2022-10-30T16:24:04.387Z,16.63
2022-10-30T16:26:37.089Z,16.63
2022-10-30T16:29:12.957Z,16.67
2022-10-30T16:31:42.960Z,16.61
2022-10-30T16:34:38.183Z,16.67
2022-10-30T16:37:06.830Z,16.63
2022-10-30T16:39:35.154Z,16.59
2022-10-30T16:42:02.604Z,16.54
2022-10-30T16:44:32.400Z,16.54
2022-10-30T16:47:17.605Z,16.46
2022-10-30T16:49:52.240Z,16.38
2022-10-30T16:52:27.022Z,16.26
2022-10-30T16:55:05.550Z,16.18
2022-10-30T16:57:36.677Z,16.14
2022-10-30T17:00:04.869Z,16.09
2022-10-30T17:02:36.738Z,16.00
2022-10-30T17:05:26.000Z,15.96
2022-10-30T17:07:55.682Z,15.85
2022-10-30T17:10:32.730Z,15.89
2022-10-30T17:13:37.156Z,15.85
2022-10-30T17:16:18.865Z,15.80
2022-10-30T17:18:49.537Z,15.75
2022-10-30T17:21:38.536Z,15.71
2022-10-30T17:24:06.156Z,15.72
2022-10-30T17:26:39.544Z,15.68
2022-10-30T17:29:06.538Z,15.64
2022-10-30T17:31:36.327Z,15.63
2022-10-30T17:34:13.861Z,15.60
2022-10-30T17:36:41.293Z,15.62
2022-10-30T17:39:08.628Z,15.58
2022-10-30T17:41:35.786Z,15.58
2022-10-30T17:44:03.694Z,15.55
2022-10-30T17:46:31.758Z,15.52
2022-10-30T17:48:59.478Z,15.49
2022-10-30T17:51:26.613Z,15.45
2022-10-30T17:53:53.728Z,15.44
2022-10-30T17:56:31.935Z,15.40
2022-10-30T17:58:59.446Z,15.33
2022-10-30T18:01:27.442Z,15.29
2022-10-30T18:03:55.565Z,15.25
2022-10-30T18:06:25.849Z,15.22
2022-10-30T18:08:53.777Z,15.18
2022-10-30T18:11:23.998Z,15.13
2022-10-30T18:13:52.013Z,15.09
2022-10-30T18:16:20.467Z,15.03
2022-10-30T18:18:47.724Z,15.03
2022-10-30T18:21:17.461Z,15.01
2022-10-30T18:23:53.208Z,15.00
2022-10-30T18:26:23.695Z,14.98
2022-10-30T18:28:51.118Z,14.95
2022-10-30T18:31:21.165Z,14.93
2022-10-30T18:33:48.647Z,14.88
2022-10-30T18:36:18.631Z,14.85
2022-10-30T18:38:45.971Z,14.84
2022-10-30T18:41:19.216Z,14.80
2022-10-30T18:43:47.355Z,14.76
2022-10-30T18:46:15.618Z,14.75
2022-10-30T18:48:43.452Z,14.74
2022-10-30T18:51:23.518Z,14.73
2022-10-30T18:53:53.657Z,14.76
2022-10-30T18:56:23.365Z,14.76
2022-10-30T18:58:54.841Z,14.76
2022-10-30T19:01:26.981Z,14.74
2022-10-30T19:03:54.097Z,14.71
2022-10-30T19:06:24.038Z,14.66
2022-10-30T19:08:51.276Z,14.63
2022-10-30T19:11:24.484Z,14.59
2022-10-30T19:13:54.220Z,14.53
2022-10-30T19:16:24.477Z,14.47
2022-10-30T19:18:51.493Z,14.47
2022-10-30T19:21:27.888Z,14.46
2022-10-30T19:23:56.142Z,14.41
2022-10-30T19:26:23.131Z,14.37
2022-10-30T19:28:50.181Z,14.33
2022-10-30T19:31:19.121Z,14.31
2022-10-30T19:33:50.031Z,14.20
2022-10-30T19:36:27.754Z,14.21
2022-10-30T19:38:55.819Z,14.19
2022-10-30T19:41:24.643Z,14.18
2022-10-30T19:43:53.157Z,14.14
2022-10-30T19:46:20.617Z,14.20
2022-10-30T19:49:02.853Z,14.20
2022-10-30T19:51:30.264Z,14.16
2022-10-30T19:53:57.304Z,14.17
2022-10-30T19:56:24.300Z,14.14
2022-10-30T19:58:51.295Z,14.10
2022-10-30T20:01:18.527Z,14.04
2022-10-30T20:03:45.654Z,13.98
2022-10-30T20:06:13.335Z,13.92
2022-10-30T20:08:40.780Z,13.90
2022-10-30T20:11:07.984Z,13.88
2022-10-30T20:13:35.387Z,13.83
2022-10-30T20:16:04.745Z,13.77
2022-10-30T20:18:34.991Z,13.75
2022-10-30T20:21:10.444Z,13.74
2022-10-30T20:23:37.554Z,13.71
2022-10-30T20:26:07.735Z,13.68
2022-10-30T20:28:42.498Z,13.64
2022-10-30T20:31:11.246Z,13.58
2022-10-30T20:33:38.612Z,13.47
2022-10-30T20:36:05.917Z,13.49
2022-10-30T20:38:34.206Z,13.47
2022-10-30T20:41:04.113Z,13.42
2022-10-30T20:43:38.576Z,13.40
2022-10-30T20:46:09.230Z,13.36
2022-10-30T20:48:37.798Z,13.33
2022-10-30T20:51:06.608Z,13.35
2022-10-30T20:53:33.966Z,13.32
2022-10-30T20:56:04.288Z,13.30
2022-10-30T20:58:31.428Z,13.30
2022-10-30T21:00:59.513Z,13.29
2022-10-30T21:03:27.667Z,13.28
2022-10-30T21:06:02.045Z,13.25
2022-10-30T21:08:31.912Z,13.21
2022-10-30T21:11:01.284Z,13.19
2022-10-30T21:13:28.891Z,13.18
2022-10-30T21:16:02.015Z,13.13
2022-10-30T21:18:29.504Z,13.11
2022-10-30T21:21:02.921Z,13.12
2022-10-30T21:23:32.274Z,13.09
2022-10-30T21:26:06.829Z,13.09
2022-10-30T21:28:34.074Z,13.08
2022-10-30T21:31:05.819Z,13.07
2022-10-30T21:33:34.750Z,13.01
2022-10-30T21:36:13.893Z,13.02
2022-10-30T21:38:42.202Z,13.00
2022-10-30T21:41:14.278Z,12.98
2022-10-30T21:43:41.670Z,12.98
2022-10-30T21:46:10.882Z,12.91
2022-10-30T21:48:38.535Z,12.90
2022-10-30T21:51:14.019Z,12.92
2022-10-30T21:53:41.637Z,12.88
2022-10-30T21:56:29.283Z,12.85
2022-10-30T21:58:59.294Z,12.67
2022-10-30T22:01:32.169Z,12.69
2022-10-30T22:04:01.473Z,12.63
2022-10-30T22:06:29.267Z,12.55
2022-10-30T22:08:57.005Z,12.48
2022-10-30T22:11:26.548Z,12.43
2022-10-30T22:13:55.069Z,12.40
2022-10-30T22:16:22.614Z,12.38
2022-10-30T22:18:49.753Z,12.30
2022-10-30T22:21:17.118Z,12.31
2022-10-30T22:23:44.308Z,12.27
2022-10-30T22:26:20.380Z,12.17
2022-10-30T22:28:47.727Z,12.15
2022-10-30T22:31:17.991Z,12.11
2022-10-30T22:33:45.830Z,12.02
2022-10-30T22:36:16.322Z,12.02
2022-10-30T22:38:43.495Z,11.94
2022-10-30T22:41:15.958Z,11.95
2022-10-30T22:43:44.850Z,11.88
2022-10-30T22:46:12.855Z,11.91
2022-10-30T22:48:40.714Z,11.87
2022-10-30T22:51:13.545Z,11.83
2022-10-30T22:53:44.815Z,11.78
2022-10-30T22:56:14.702Z,11.77
2022-10-30T22:58:42.282Z,11.68
2022-10-30T23:01:15.360Z,11.70
2022-10-30T23:03:43.165Z,11.69
2022-10-30T23:06:10.514Z,11.66
2022-10-30T23:08:37.658Z,11.59
2022-10-30T23:11:05.877Z,11.61
2022-10-30T23:13:34.382Z,11.65
2022-10-30T23:16:13.492Z,11.66
2022-10-30T23:18:40.872Z,11.64
2022-10-30T23:21:12.675Z,11.64
2022-10-30T23:23:41.204Z,11.64
2022-10-30T23:26:20.144Z,11.61
2022-10-30T23:28:48.720Z,11.59
2022-10-30T23:31:38.856Z,11.59
2022-10-30T23:34:10.747Z,11.56
2022-10-30T23:36:38.642Z,11.47
2022-10-30T23:39:17.016Z,11.47
2022-10-30T23:41:44.508Z,11.49
2022-10-30T23:44:13.734Z,11.46
2022-10-30T23:46:40.795Z,11.42
2022-10-30T23:49:07.840Z,11.44
2022-10-30T23:51:34.908Z,11.43
2022-10-30T23:54:02.648Z,11.48
2022-10-30T23:56:30.469Z,11.49
2022-10-30T23:58:57.843Z,11.49
